Isola Celeste — 9HOD9 — position and weather

sailwx.info

Track history (hours):
 
Tides and Currents Weather Stations Pressure Air Temp Water Temp Dewpoint Dewpoint Depression Visibility Wind Speed Wind Dir Waves Ship Positions

Isola Celeste

Last reported at 2018-May-21 23:26 UTC. Time now 2018-May-23 15:13 UTC.
Position N 44°42' E 036°31'.

Length 182 m; draft 8.5 m.

Type: Tanker. MMSI: 249263000.

Date/timePositionNaut miles runAvg speedWind from/ knotsBaromVisibWave heightAir tempDewpointWater temp
2018-May-21 23:26N 44°42' E 036°31'813.5
2018-May-21 22:52N 44°49' E 036°34'513.5
2018-May-21 22:30N 44°54' E 036°35'713.2
2018-May-21 21:57N 45°01' E 036°36'4 9.0
2018-May-21 21:30N 45°05' E 036°36'1 0.0
2018-May-20 21:16N 45°06' E 036°37'1 4.5
2018-May-20 21:00N 45°05' E 036°36'1 1.7
2018-May-20 20:24N 45°04' E 036°35'0 0.0
2018-May-20 18:24N 45°04' E 036°35'0 0.0
2018-May-20 16:30N 45°04' E 036°35'0 0.0
2018-May-20 15:51N 45°04' E 036°35'0 0.0
2018-May-20 15:21N 45°04' E 036°35'0 0.0
2018-May-20 14:57N 45°04' E 036°35'0 0.0
2018-May-20 14:30N 45°04' E 036°35'0 0.0
2018-May-20 13:57N 45°04' E 036°35'0 0.1
2018-May-20 13:30N 45°04' E 036°35'0 0.0
2018-May-20 12:48N 45°04' E 036°35'0 0.0
2018-May-20 11:48N 45°04' E 036°35'0 0.1
2018-May-20 11:27N 45°05' E 036°35'0 0.0
2018-May-20 11:00N 45°04' E 036°35'0 0.0
2018-May-20 10:30N 45°04' E 036°35'0 0.0
2018-May-20 10:00N 45°05' E 036°35'0 0.0
2018-May-20 09:30N 45°05' E 036°35'0 0.2
2018-May-20 09:00N 45°05' E 036°35'0 0.2
2018-May-20 08:30N 45°05' E 036°35'0 0.1
2018-May-20 08:00N 45°04' E 036°35'0 0.0
2018-May-20 07:27N 45°04' E 036°35'0 0.1
2018-May-20 06:54N 45°04' E 036°35'0 0.0
2018-May-20 01:12N 45°04' E 036°35'0 0.1
2018-May-20 01:00N 45°04' E 036°35'0 0.1
2018-May-20 00:30N 45°04' E 036°35'0 0.1
2018-May-20 00:00N 45°04' E 036°35'0 0.1
2018-May-19 23:30N 45°05' E 036°35'0 0.1
2018-May-19 22:54N 45°05' E 036°35'0 0.0
2018-May-19 20:57N 45°05' E 036°35'0 0.0
2018-May-19 20:18N 45°05' E 036°35'0 0.0
2018-May-19 19:54N 45°05' E 036°35'0 0.1
2018-May-19 18:51N 45°05' E 036°35'0 0.1
2018-May-19 17:54N 45°05' E 036°35'0 0.1
2018-May-19 17:30N 45°05' E 036°35'0 0.0
2018-May-19 16:57N 45°05' E 036°35'0 0.0
2018-May-19 16:30N 45°05' E 036°35'0 0.0
2018-May-19 16:00N 45°05' E 036°35'0 0.0
2018-May-19 15:30N 45°05' E 036°35'0 0.0
2018-May-19 14:42N 45°05' E 036°35'0 0.0
2018-May-19 14:24N 45°05' E 036°35'0 0.0
2018-May-19 14:00N 45°05' E 036°35'0 0.0
2018-May-19 13:12N 45°05' E 036°35'0 0.0
2018-May-19 12:54N 45°05' E 036°35'0 0.1
2018-May-19 12:21N 45°05' E 036°35'0 0.1
2018-May-19 11:51N 45°05' E 036°35'0 0.0
2018-May-19 08:15N 45°05' E 036°35'0 0.0
2018-May-19 06:09N 45°05' E 036°35'0 0.0
2018-May-19 06:00N 45°05' E 036°35'0 0.0
2018-May-19 05:21N 45°05' E 036°35'0 0.0
2018-May-19 03:36N 45°05' E 036°35'0 0.0
2018-May-19 03:30N 45°05' E 036°35'0 0.0
2018-May-19 02:57N 45°05' E 036°35'0 0.0
2018-May-19 02:30N 45°05' E 036°35'0 0.0
2018-May-19 01:57N 45°05' E 036°35'0 0.0
2018-May-19 01:15N 45°05' E 036°35'0 0.0
2018-May-19 01:00N 45°05' E 036°35'0 0.0
2018-May-18 16:48N 45°05' E 036°35'0 0.0
2018-May-18 14:12N 45°05' E 036°35'0 0.1
2018-May-18 14:00N 45°05' E 036°35'5 0.6
2018-May-18 05:23N 44°59' E 036°37'511.1
2018-May-18 04:58N 44°55' E 036°38'2 4.8
2018-May-18 04:30N 44°53' E 036°40'0 0.0
2018-May-18 04:00N 44°53' E 036°40'0 0.0
2018-May-18 03:30N 44°53' E 036°40'0 0.0
2018-May-18 02:54N 44°53' E 036°40'0 0.1
2018-May-18 01:27N 44°53' E 036°40'0 0.1
2018-May-18 00:45N 44°53' E 036°40'0 0.0
2018-May-18 00:30N 44°53' E 036°40'0 0.1
2018-May-18 00:00N 44°53' E 036°40'0 0.0
2018-May-17 23:30N 44°53' E 036°40'0 0.0
2018-May-17 23:00N 44°53' E 036°40'0 0.0
2018-May-17 22:30N 44°53' E 036°40'0 0.0
2018-May-17 21:54N 44°53' E 036°40'0 0.1
2018-May-17 21:24N 44°53' E 036°40'0 0.0
2018-May-17 20:57N 44°53' E 036°40'0 0.0
2018-May-17 20:27N 44°53' E 036°40'0 0.1
2018-May-17 19:48N 44°53' E 036°40'0 0.0
2018-May-17 19:30N 44°53' E 036°40'0 0.0
2018-May-17 19:00N 44°53' E 036°40'0 0.0
2018-May-17 18:30N 44°53' E 036°40'0 0.0
2018-May-17 10:27N 44°53' E 036°40'0 0.0
2018-May-17 05:30N 44°53' E 036°40'0 0.0
2018-May-17 04:42N 44°53' E 036°40'0 0.1
2018-May-17 04:27N 44°53' E 036°40'0 0.0
2018-May-17 03:48N 44°53' E 036°40'0 0.0
2018-May-17 03:06N 44°53' E 036°40'0 0.0
2018-May-17 02:42N 44°53' E 036°40'0 0.0
2018-May-17 01:54N 44°53' E 036°40'0 0.0
2018-May-17 01:27N 44°53' E 036°40'0 0.0
2018-May-16 21:06N 44°53' E 036°40'0 0.0
2018-May-16 21:00N 44°53' E 036°40'0 0.0
2018-May-16 20:12N 44°53' E 036°40'0 0.0
2018-May-16 20:00N 44°53' E 036°40'0 0.1
2018-May-16 19:30N 44°53' E 036°40'0 0.1
2018-May-16 18:54N 44°53' E 036°40'0 0.1
2018-May-16 18:30N 44°53' E 036°40'0 0.0
2018-May-16 17:03N 44°53' E 036°40'0 0.0
2018-May-16 16:57N 44°53' E 036°40'0 0.0
2018-May-16 16:27N 44°53' E 036°40'0 0.0
2018-May-16 16:00N 44°53' E 036°40'0 0.1
2018-May-16 15:24N 44°53' E 036°40'0 0.0
2018-May-16 15:00N 44°53' E 036°40'7 5.6
2018-May-16 13:50N 44°47' E 036°45'  
Track history (hours):
 
Tides and Currents Weather Stations Pressure Air Temp Water Temp Dewpoint Dewpoint Depression Visibility Wind Speed Wind Dir Waves Ship Positions

Isola Celeste

Last reported at 2018-May-21 23:26 UTC. Time now 2018-May-23 15:13 UTC.
Position N 44°42' E 036°31'.

Length 182 m; draft 8.5 m.

Type: Tanker. MMSI: 249263000.

Date/timePositionNaut miles runAvg speedWind from/ knotsBaromVisibWave heightAir tempDewpointWater temp
2018-May-21 23:26N 44°42' E 036°31'813.5
2018-May-21 22:52N 44°49' E 036°34'513.5
2018-May-21 22:30N 44°54' E 036°35'713.2
2018-May-21 21:57N 45°01' E 036°36'4 9.0
2018-May-21 21:30N 45°05' E 036°36'1 0.0
2018-May-20 21:16N 45°06' E 036°37'1 4.5
2018-May-20 21:00N 45°05' E 036°36'1 1.7
2018-May-20 20:24N 45°04' E 036°35'0 0.0
2018-May-20 18:24N 45°04' E 036°35'0 0.0
2018-May-20 16:30N 45°04' E 036°35'0 0.0
2018-May-20 15:51N 45°04' E 036°35'0 0.0
2018-May-20 15:21N 45°04' E 036°35'0 0.0
2018-May-20 14:57N 45°04' E 036°35'0 0.0
2018-May-20 14:30N 45°04' E 036°35'0 0.0
2018-May-20 13:57N 45°04' E 036°35'0 0.1
2018-May-20 13:30N 45°04' E 036°35'0 0.0
2018-May-20 12:48N 45°04' E 036°35'0 0.0
2018-May-20 11:48N 45°04' E 036°35'0 0.1
2018-May-20 11:27N 45°05' E 036°35'0 0.0
2018-May-20 11:00N 45°04' E 036°35'0 0.0
2018-May-20 10:30N 45°04' E 036°35'0 0.0
2018-May-20 10:00N 45°05' E 036°35'0 0.0
2018-May-20 09:30N 45°05' E 036°35'0 0.2
2018-May-20 09:00N 45°05' E 036°35'0 0.2
2018-May-20 08:30N 45°05' E 036°35'0 0.1
2018-May-20 08:00N 45°04' E 036°35'0 0.0
2018-May-20 07:27N 45°04' E 036°35'0 0.1
2018-May-20 06:54N 45°04' E 036°35'0 0.0
2018-May-20 01:12N 45°04' E 036°35'0 0.1
2018-May-20 01:00N 45°04' E 036°35'0 0.1
2018-May-20 00:30N 45°04' E 036°35'0 0.1
2018-May-20 00:00N 45°04' E 036°35'0 0.1
2018-May-19 23:30N 45°05' E 036°35'0 0.1
2018-May-19 22:54N 45°05' E 036°35'0 0.0
2018-May-19 20:57N 45°05' E 036°35'0 0.0
2018-May-19 20:18N 45°05' E 036°35'0 0.0
2018-May-19 19:54N 45°05' E 036°35'0 0.1
2018-May-19 18:51N 45°05' E 036°35'0 0.1
2018-May-19 17:54N 45°05' E 036°35'0 0.1
2018-May-19 17:30N 45°05' E 036°35'0 0.0
2018-May-19 16:57N 45°05' E 036°35'0 0.0
2018-May-19 16:30N 45°05' E 036°35'0 0.0
2018-May-19 16:00N 45°05' E 036°35'0 0.0
2018-May-19 15:30N 45°05' E 036°35'0 0.0
2018-May-19 14:42N 45°05' E 036°35'0 0.0
2018-May-19 14:24N 45°05' E 036°35'0 0.0
2018-May-19 14:00N 45°05' E 036°35'0 0.0
2018-May-19 13:12N 45°05' E 036°35'0 0.0
2018-May-19 12:54N 45°05' E 036°35'0 0.1
2018-May-19 12:21N 45°05' E 036°35'0 0.1
2018-May-19 11:51N 45°05' E 036°35'0 0.0
2018-May-19 08:15N 45°05' E 036°35'0 0.0
2018-May-19 06:09N 45°05' E 036°35'0 0.0
2018-May-19 06:00N 45°05' E 036°35'0 0.0
2018-May-19 05:21N 45°05' E 036°35'0 0.0
2018-May-19 03:36N 45°05' E 036°35'0 0.0
2018-May-19 03:30N 45°05' E 036°35'0 0.0
2018-May-19 02:57N 45°05' E 036°35'0 0.0
2018-May-19 02:30N 45°05' E 036°35'0 0.0
2018-May-19 01:57N 45°05' E 036°35'0 0.0
2018-May-19 01:15N 45°05' E 036°35'0 0.0
2018-May-19 01:00N 45°05' E 036°35'0 0.0
2018-May-18 16:48N 45°05' E 036°35'0 0.0
2018-May-18 14:12N 45°05' E 036°35'0 0.1
2018-May-18 14:00N 45°05' E 036°35'5 0.6
2018-May-18 05:23N 44°59' E 036°37'511.1
2018-May-18 04:58N 44°55' E 036°38'2 4.8
2018-May-18 04:30N 44°53' E 036°40'0 0.0
2018-May-18 04:00N 44°53' E 036°40'0 0.0
2018-May-18 03:30N 44°53' E 036°40'0 0.0
2018-May-18 02:54N 44°53' E 036°40'0 0.1
2018-May-18 01:27N 44°53' E 036°40'0 0.1
2018-May-18 00:45N 44°53' E 036°40'0 0.0
2018-May-18 00:30N 44°53' E 036°40'0 0.1
2018-May-18 00:00N 44°53' E 036°40'0 0.0
2018-May-17 23:30N 44°53' E 036°40'0 0.0
2018-May-17 23:00N 44°53' E 036°40'0 0.0
2018-May-17 22:30N 44°53' E 036°40'0 0.0
2018-May-17 21:54N 44°53' E 036°40'0 0.1
2018-May-17 21:24N 44°53' E 036°40'0 0.0
2018-May-17 20:57N 44°53' E 036°40'0 0.0
2018-May-17 20:27N 44°53' E 036°40'0 0.1
2018-May-17 19:48N 44°53' E 036°40'0 0.0
2018-May-17 19:30N 44°53' E 036°40'0 0.0
2018-May-17 19:00N 44°53' E 036°40'0 0.0
2018-May-17 18:30N 44°53' E 036°40'0 0.0
2018-May-17 10:27N 44°53' E 036°40'0 0.0
2018-May-17 05:30N 44°53' E 036°40'0 0.0
2018-May-17 04:42N 44°53' E 036°40'0 0.1
2018-May-17 04:27N 44°53' E 036°40'0 0.0
2018-May-17 03:48N 44°53' E 036°40'0 0.0
2018-May-17 03:06N 44°53' E 036°40'0 0.0
2018-May-17 02:42N 44°53' E 036°40'0 0.0
2018-May-17 01:54N 44°53' E 036°40'0 0.0
2018-May-17 01:27N 44°53' E 036°40'0 0.0
2018-May-16 21:06N 44°53' E 036°40'0 0.0
2018-May-16 21:00N 44°53' E 036°40'0 0.0
2018-May-16 20:12N 44°53' E 036°40'0 0.0
2018-May-16 20:00N 44°53' E 036°40'0 0.1
2018-May-16 19:30N 44°53' E 036°40'0 0.1
2018-May-16 18:54N 44°53' E 036°40'0 0.1
2018-May-16 18:30N 44°53' E 036°40'0 0.0
2018-May-16 17:03N 44°53' E 036°40'0 0.0
2018-May-16 16:57N 44°53' E 036°40'0 0.0
2018-May-16 16:27N 44°53' E 036°40'0 0.0
2018-May-16 16:00N 44°53' E 036°40'0 0.1
2018-May-16 15:24N 44°53' E 036°40'0 0.0
2018-May-16 15:00N 44°53' E 036°40'7 5.6
2018-May-16 13:50N 44°47' E 036°45'  

Dump ship's entire track history